createdAt,value
2019-02-08T00:00:14.808Z,953.1
2019-02-08T00:01:14.785Z,953.14
2019-02-08T00:02:14.766Z,953.1
2019-02-08T00:03:14.747Z,953.13
2019-02-08T00:04:14.732Z,953.17
2019-02-08T00:05:14.712Z,953.11
2019-02-08T00:06:14.692Z,953.16
2019-02-08T00:07:14.679Z,953.17
2019-02-08T00:08:14.656Z,953.13
2019-02-08T00:09:14.638Z,953.16
2019-02-08T00:10:14.620Z,953.15
2019-02-08T00:11:14.603Z,953.17
2019-02-08T00:12:14.587Z,953.22
2019-02-08T00:13:14.565Z,953.22
2019-02-08T00:14:14.547Z,953.16
2019-02-08T00:15:14.550Z,953.23
2019-02-08T00:16:14.516Z,953.2
2019-02-08T00:17:14.496Z,953.23
2019-02-08T00:18:14.485Z,953.25
2019-02-08T00:19:14.457Z,953.25
2019-02-08T00:20:14.438Z,953.3
2019-02-08T00:21:14.422Z,953.28
2019-02-08T00:22:14.405Z,953.21
2019-02-08T00:23:25.953Z,953.27
2019-02-08T00:24:14.366Z,953.33
2019-02-08T00:25:14.355Z,953.26
2019-02-08T00:26:14.344Z,953.29
2019-02-08T00:27:14.312Z,953.35
2019-02-08T00:28:14.399Z,953.29
2019-02-08T00:29:14.279Z,953.3
2019-02-08T00:30:14.259Z,953.3
2019-02-08T00:31:14.247Z,953.31
2019-02-08T00:32:14.226Z,953.32
2019-02-08T00:33:14.203Z,953.33
2019-02-08T00:34:14.186Z,953.34
2019-02-08T00:35:14.169Z,953.33
2019-02-08T00:36:14.149Z,953.33
2019-02-08T00:37:14.131Z,953.37
2019-02-08T00:38:14.113Z,953.38
2019-02-08T00:39:14.094Z,953.37
2019-02-08T00:40:14.078Z,953.35
2019-02-08T00:41:14.060Z,953.37
2019-02-08T00:42:14.039Z,953.39
2019-02-08T00:43:14.022Z,953.39
2019-02-08T00:44:14.004Z,953.38
2019-02-08T00:45:13.985Z,953.39
2019-02-08T00:46:13.968Z,953.38
2019-02-08T00:47:13.949Z,953.39
2019-02-08T00:48:13.934Z,953.41
2019-02-08T00:49:13.914Z,953.48
2019-02-08T00:50:13.896Z,953.42
2019-02-08T00:51:13.880Z,953.46
2019-02-08T00:52:13.861Z,953.48
2019-02-08T00:53:13.841Z,953.46
2019-02-08T00:54:13.825Z,953.44
2019-02-08T00:55:13.808Z,953.42
2019-02-08T00:56:13.789Z,953.41
2019-02-08T00:57:13.771Z,953.44
2019-02-08T00:58:13.752Z,953.41
2019-02-08T00:59:13.737Z,953.38
2019-02-08T01:00:13.719Z,953.41
2019-02-08T01:01:13.700Z,953.41
2019-02-08T01:02:13.682Z,953.49
2019-02-08T01:03:13.664Z,953.47
2019-02-08T01:04:13.645Z,953.48
2019-02-08T01:05:13.630Z,953.5
2019-02-08T01:06:13.612Z,953.57
2019-02-08T01:07:13.609Z,953.54
2019-02-08T01:08:13.576Z,953.5
2019-02-08T01:09:13.559Z,953.49
2019-02-08T01:10:13.540Z,953.55
2019-02-08T01:11:13.522Z,953.54
2019-02-08T01:12:13.505Z,953.55
2019-02-08T01:13:13.489Z,953.59
2019-02-08T01:14:13.471Z,953.59
2019-02-08T01:15:13.451Z,953.64
2019-02-08T01:16:13.434Z,953.57
2019-02-08T01:17:13.418Z,953.65
2019-02-08T01:18:13.397Z,953.64
2019-02-08T01:19:13.381Z,953.65
2019-02-08T01:20:13.366Z,953.64
2019-02-08T01:21:13.346Z,953.66
2019-02-08T01:22:13.327Z,953.64
2019-02-08T01:23:13.311Z,953.67
2019-02-08T01:24:13.292Z,953.69
2019-02-08T01:25:13.278Z,953.72
2019-02-08T01:26:13.257Z,953.7
2019-02-08T01:27:13.238Z,953.65
2019-02-08T01:28:13.221Z,953.66
2019-02-08T01:29:13.202Z,953.68
2019-02-08T01:30:13.185Z,953.6
2019-02-08T01:31:13.168Z,953.67
2019-02-08T01:32:13.153Z,953.62
2019-02-08T01:33:13.131Z,953.68
2019-02-08T01:34:13.115Z,953.67
2019-02-08T01:35:13.099Z,953.65
2019-02-08T01:36:13.080Z,953.64
2019-02-08T01:37:13.062Z,953.58
2019-02-08T01:38:13.045Z,953.6
2019-02-08T01:39:13.028Z,953.6
2019-02-08T01:40:13.009Z,953.62
2019-02-08T01:41:12.992Z,953.64
2019-02-08T01:42:12.974Z,953.65
2019-02-08T01:43:12.957Z,953.7
2019-02-08T01:44:12.939Z,953.65
2019-02-08T01:45:12.921Z,953.68
2019-02-08T01:46:12.904Z,953.69
2019-02-08T01:47:12.887Z,953.7
2019-02-08T01:48:12.869Z,953.71
2019-02-08T01:49:12.851Z,953.69
2019-02-08T01:50:12.833Z,953.76
2019-02-08T01:51:12.814Z,953.78
2019-02-08T01:52:12.798Z,953.76
2019-02-08T01:53:12.780Z,953.78
2019-02-08T01:54:12.766Z,953.79
2019-02-08T01:55:12.744Z,953.8
2019-02-08T01:56:12.728Z,953.77
2019-02-08T01:57:12.710Z,953.8
2019-02-08T01:58:12.690Z,953.69
2019-02-08T01:59:12.673Z,953.77
2019-02-08T02:00:12.657Z,953.72
2019-02-08T02:01:12.638Z,953.77
2019-02-08T02:02:12.621Z,953.82
2019-02-08T02:03:12.603Z,953.72
2019-02-08T02:04:12.586Z,953.76
2019-02-08T02:05:12.569Z,953.77
2019-02-08T02:06:12.550Z,953.86
2019-02-08T02:07:12.534Z,953.74
2019-02-08T02:08:12.515Z,953.81
2019-02-08T02:09:12.497Z,953.8
2019-02-08T02:10:12.482Z,953.78
2019-02-08T02:11:12.468Z,953.83
2019-02-08T02:12:12.452Z,953.79
2019-02-08T02:13:12.427Z,953.87
2019-02-08T02:14:12.410Z,953.84
2019-02-08T02:15:12.391Z,953.86
2019-02-08T02:16:12.376Z,953.82
2019-02-08T02:17:12.355Z,953.77
2019-02-08T02:18:12.339Z,953.83
2019-02-08T02:19:12.322Z,953.77
2019-02-08T02:20:12.303Z,953.85
2019-02-08T02:21:12.287Z,953.81
2019-02-08T02:22:12.268Z,953.81
2019-02-08T02:23:12.251Z,953.79
2019-02-08T02:24:12.233Z,953.78
2019-02-08T02:25:12.216Z,953.79
2019-02-08T02:26:12.197Z,953.73
2019-02-08T02:27:12.181Z,953.71
2019-02-08T02:28:12.162Z,953.73
2019-02-08T02:29:12.146Z,953.74
2019-02-08T02:30:12.127Z,953.69
2019-02-08T02:31:12.113Z,953.76
2019-02-08T02:32:12.095Z,953.77
2019-02-08T02:33:12.074Z,953.83
2019-02-08T02:34:12.056Z,953.84
2019-02-08T02:35:12.069Z,953.85
2019-02-08T02:36:12.021Z,953.87
2019-02-08T02:37:12.005Z,953.82
2019-02-08T02:38:11.987Z,953.84
2019-02-08T02:39:11.970Z,953.83
2019-02-08T02:40:11.952Z,953.98
2019-02-08T02:41:11.933Z,953.99
2019-02-08T02:42:11.914Z,953.96
2019-02-08T02:43:11.897Z,953.99
2019-02-08T02:44:11.880Z,953.97
2019-02-08T02:45:11.863Z,954.03
2019-02-08T02:46:11.888Z,954.07
2019-02-08T02:47:11.861Z,954.01
2019-02-08T02:48:11.811Z,954.08
2019-02-08T02:49:11.793Z,954.1
2019-02-08T02:50:11.774Z,954.1
2019-02-08T02:51:11.758Z,954.13
2019-02-08T02:52:11.742Z,954.1
2019-02-08T02:53:11.720Z,954.15
2019-02-08T02:54:11.703Z,954.14
2019-02-08T02:55:11.689Z,954.17
2019-02-08T02:56:11.669Z,954.2
2019-02-08T02:57:11.651Z,954.23
2019-02-08T02:58:11.633Z,954.24
2019-02-08T02:59:11.617Z,954.28
2019-02-08T03:00:11.598Z,954.23
2019-02-08T03:01:11.581Z,954.24
2019-02-08T03:02:11.563Z,954.2
2019-02-08T03:03:11.546Z,954.2
2019-02-08T03:04:11.529Z,954.19
2019-02-08T03:05:11.519Z,954.18
2019-02-08T03:06:11.493Z,954.14
2019-02-08T03:07:11.476Z,954.13
2019-02-08T03:08:11.458Z,954.1
2019-02-08T03:09:11.443Z,954.06
2019-02-08T03:10:11.425Z,954.04
2019-02-08T03:11:11.405Z,954.04
2019-02-08T03:12:11.387Z,954.08
2019-02-08T03:13:11.370Z,954.11
2019-02-08T03:14:11.353Z,954.12
2019-02-08T03:15:11.336Z,954.1
2019-02-08T03:16:11.318Z,954.11
2019-02-08T03:17:11.299Z,954.16
2019-02-08T03:18:11.287Z,954.15
2019-02-08T03:19:11.265Z,954.16
2019-02-08T03:20:11.248Z,954.07
2019-02-08T03:21:11.245Z,954.12
2019-02-08T03:22:11.212Z,954.08
2019-02-08T03:23:11.195Z,954.12
2019-02-08T03:24:12.976Z,954.06
2019-02-08T03:25:11.160Z,954.06
2019-02-08T03:26:11.142Z,954.04
2019-02-08T03:27:11.124Z,953.99
2019-02-08T03:28:11.106Z,954.06
2019-02-08T03:29:11.090Z,954
2019-02-08T03:30:11.071Z,953.93
2019-02-08T03:31:11.055Z,953.89
2019-02-08T03:32:11.105Z,953.8
2019-02-08T03:33:11.031Z,953.84
2019-02-08T03:34:11.026Z,953.76
2019-02-08T03:35:10.983Z,953.76
2019-02-08T03:36:10.969Z,953.71
2019-02-08T03:37:10.949Z,953.72
2019-02-08T03:38:10.930Z,953.71
2019-02-08T03:39:10.914Z,953.73
2019-02-08T03:40:10.947Z,953.7
2019-02-08T03:41:10.878Z,953.66
2019-02-08T03:42:10.859Z,953.66
2019-02-08T03:43:10.843Z,953.68
2019-02-08T03:44:10.833Z,953.7
2019-02-08T03:45:10.808Z,953.7
2019-02-08T03:46:10.789Z,953.7
2019-02-08T03:47:10.772Z,953.73
2019-02-08T03:48:10.755Z,953.75
2019-02-08T03:49:10.738Z,953.81
2019-02-08T03:50:10.723Z,953.81
2019-02-08T03:51:10.701Z,953.78
2019-02-08T03:52:10.684Z,953.85
2019-02-08T03:53:10.666Z,953.82
2019-02-08T03:54:10.654Z,953.88
2019-02-08T03:55:10.631Z,953.87
2019-02-08T03:56:10.612Z,953.91
2019-02-08T03:57:10.595Z,953.9
2019-02-08T03:58:10.580Z,953.91
2019-02-08T03:59:10.559Z,953.92
2019-02-08T04:00:10.541Z,953.91
2019-02-08T04:01:10.523Z,953.93
2019-02-08T04:02:10.506Z,953.88
2019-02-08T04:03:10.488Z,953.86
2019-02-08T04:04:10.470Z,953.89
2019-02-08T04:05:10.454Z,953.9
2019-02-08T04:06:10.436Z,953.97
2019-02-08T04:07:10.418Z,953.94
2019-02-08T04:08:10.401Z,954.01
2019-02-08T04:09:10.383Z,954
2019-02-08T04:10:10.364Z,953.96
2019-02-08T04:11:10.347Z,953.95
2019-02-08T04:12:10.332Z,953.98
2019-02-08T04:13:10.312Z,953.93
2019-02-08T04:14:10.294Z,953.92
2019-02-08T04:15:10.279Z,953.92
2019-02-08T04:16:10.272Z,953.91
2019-02-08T04:17:10.240Z,953.87
2019-02-08T04:18:10.224Z,953.96
2019-02-08T04:19:10.205Z,953.97
2019-02-08T04:20:10.189Z,954
2019-02-08T04:21:10.170Z,954.04
2019-02-08T04:22:10.152Z,954.01
2019-02-08T04:23:10.135Z,954.02
2019-02-08T04:24:10.119Z,954.06
2019-02-08T04:25:10.099Z,954.06
2019-02-08T04:26:10.081Z,954.08
2019-02-08T04:27:10.063Z,954.16
2019-02-08T04:28:10.046Z,954.11
2019-02-08T04:29:10.028Z,954.16
2019-02-08T04:30:10.013Z,954.17
2019-02-08T04:31:09.996Z,954.08
2019-02-08T04:32:09.977Z,954.11
2019-02-08T04:33:09.956Z,954.05
2019-02-08T04:34:09.941Z,954.09
2019-02-08T04:35:09.923Z,954.04
2019-02-08T04:36:09.906Z,954.09
2019-02-08T04:37:09.887Z,954.04
2019-02-08T04:38:09.871Z,954.06
2019-02-08T04:39:09.853Z,954.01
2019-02-08T04:40:09.842Z,954.03
2019-02-08T04:41:09.815Z,954.05
2019-02-08T04:42:09.798Z,953.96
2019-02-08T04:43:09.780Z,953.98
2019-02-08T04:44:09.763Z,953.98
2019-02-08T04:45:09.747Z,953.96
2019-02-08T04:46:09.728Z,954.02
2019-02-08T04:47:09.712Z,954.02
2019-02-08T04:48:09.693Z,954.03
2019-02-08T04:49:09.677Z,954.06
2019-02-08T04:50:09.657Z,954.01
2019-02-08T04:51:09.641Z,954.06
2019-02-08T04:52:09.624Z,954.1
2019-02-08T04:53:09.608Z,954.06
2019-02-08T04:54:09.588Z,954.11
2019-02-08T04:55:09.570Z,954.1
2019-02-08T04:56:09.555Z,954.1
2019-02-08T04:57:09.535Z,954.09
2019-02-08T04:58:09.517Z,954.09
2019-02-08T04:59:09.500Z,954.1
2019-02-08T05:00:09.482Z,954.15
2019-02-08T05:01:09.464Z,954.18
2019-02-08T05:02:09.448Z,954.16
2019-02-08T05:03:09.431Z,954.19
2019-02-08T05:04:09.410Z,954.21
2019-02-08T05:05:09.394Z,954.26
2019-02-08T05:06:09.376Z,954.3
2019-02-08T05:07:09.359Z,954.26
2019-02-08T05:08:09.342Z,954.3
2019-02-08T05:09:09.326Z,954.29
2019-02-08T05:10:09.306Z,954.25
2019-02-08T05:11:09.287Z,954.3
2019-02-08T05:12:09.269Z,954.32
2019-02-08T05:13:09.253Z,954.29
2019-02-08T05:14:09.236Z,954.3
2019-02-08T05:15:09.218Z,954.27
2019-02-08T05:16:09.200Z,954.27
2019-02-08T05:17:09.183Z,954.23
2019-02-08T05:18:09.167Z,954.23
2019-02-08T05:19:09.146Z,954.23
2019-02-08T05:20:09.130Z,954.15
2019-02-08T05:21:09.112Z,954.16
2019-02-08T05:22:09.095Z,954.17
2019-02-08T05:23:09.077Z,954.16
2019-02-08T05:24:09.059Z,954.18
2019-02-08T05:25:09.044Z,954.15
2019-02-08T05:26:09.027Z,954.14
2019-02-08T05:27:09.006Z,954.12
2019-02-08T05:28:08.989Z,954.14
2019-02-08T05:29:08.972Z,954.14
2019-02-08T05:30:08.955Z,954.15
2019-02-08T05:31:08.936Z,954.16
2019-02-08T05:32:08.920Z,954.15
2019-02-08T05:33:08.902Z,954.13
2019-02-08T05:34:08.885Z,954.14
2019-02-08T05:35:08.891Z,954.14
2019-02-08T05:36:08.849Z,954.16
2019-02-08T05:37:08.833Z,954.18
2019-02-08T05:38:08.813Z,954.1
2019-02-08T05:39:08.795Z,954.11
2019-02-08T05:40:08.781Z,954.1
2019-02-08T05:41:08.761Z,954.12
2019-02-08T05:42:08.744Z,954.13
2019-02-08T05:43:08.728Z,954.04
2019-02-08T05:44:08.708Z,954.05
2019-02-08T05:45:08.691Z,954.06
2019-02-08T05:46:08.673Z,954.09
2019-02-08T05:47:08.658Z,954.1
2019-02-08T05:48:08.640Z,954.08
2019-02-08T05:49:08.621Z,954.11
2019-02-08T05:50:08.603Z,954.08
2019-02-08T05:51:08.586Z,954.09
2019-02-08T05:52:08.568Z,954.15
2019-02-08T05:53:08.586Z,954.08
2019-02-08T05:54:08.533Z,954.07
2019-02-08T05:55:08.515Z,954.08
2019-02-08T05:56:08.497Z,954.03
2019-02-08T05:57:08.483Z,954
2019-02-08T05:58:08.463Z,954.06
2019-02-08T05:59:08.446Z,954.08
2019-02-08T06:00:08.428Z,954.12
2019-02-08T06:01:08.413Z,954.1
2019-02-08T06:02:08.393Z,954.14
2019-02-08T06:03:08.388Z,954.09
2019-02-08T06:04:08.359Z,954.08
2019-02-08T06:05:08.342Z,954.1
2019-02-08T06:06:08.325Z,954.2
2019-02-08T06:07:08.303Z,954.13
2019-02-08T06:08:08.285Z,954.18
2019-02-08T06:09:08.269Z,954.16
2019-02-08T06:10:08.252Z,954.19
2019-02-08T06:11:08.234Z,954.21
2019-02-08T06:12:08.217Z,954.25
2019-02-08T06:13:08.198Z,954.25
2019-02-08T06:14:08.182Z,954.2
2019-02-08T06:15:08.162Z,954.22
2019-02-08T06:16:08.146Z,954.23
2019-02-08T06:17:08.138Z,954.24
2019-02-08T06:18:08.110Z,954.2
2019-02-08T06:19:08.091Z,954.29
2019-02-08T06:20:08.076Z,954.26
2019-02-08T06:21:08.057Z,954.21
2019-02-08T06:22:08.039Z,954.25
2019-02-08T06:23:08.024Z,954.23
2019-02-08T06:24:08.005Z,954.25
2019-02-08T06:25:07.989Z,954.29
2019-02-08T06:26:07.971Z,954.34
2019-02-08T06:27:07.953Z,954.31
2019-02-08T06:28:07.935Z,954.3
2019-02-08T06:29:07.918Z,954.26
2019-02-08T06:30:07.899Z,954.28
2019-02-08T06:31:07.882Z,954.26
2019-02-08T06:32:08.014Z,954.25
2019-02-08T06:33:07.852Z,954.22
2019-02-08T06:34:07.830Z,954.29
2019-02-08T06:35:07.812Z,954.32
2019-02-08T06:36:07.793Z,954.3
2019-02-08T06:37:07.777Z,954.24
2019-02-08T06:38:07.759Z,954.22
2019-02-08T06:39:07.741Z,954.21
2019-02-08T06:40:07.724Z,954.28
2019-02-08T06:41:07.706Z,954.31
2019-02-08T06:42:07.691Z,954.27
2019-02-08T06:43:07.670Z,954.27
2019-02-08T06:44:07.691Z,954.31
2019-02-08T06:45:07.635Z,954.35
2019-02-08T06:46:07.647Z,954.3
2019-02-08T06:47:07.609Z,954.26
2019-02-08T06:48:07.587Z,954.33
2019-02-08T06:49:07.565Z,954.27
2019-02-08T06:50:07.547Z,954.33
2019-02-08T06:51:07.528Z,954.34
2019-02-08T06:52:07.511Z,954.38
2019-02-08T06:53:07.493Z,954.37
2019-02-08T06:54:07.475Z,954.37
2019-02-08T06:55:10.845Z,954.33
2019-02-08T06:56:07.440Z,954.38
2019-02-08T06:57:07.426Z,954.4
2019-02-08T06:58:07.404Z,954.41
2019-02-08T06:59:07.388Z,954.42
2019-02-08T07:00:07.370Z,954.47
2019-02-08T07:01:07.353Z,954.48
2019-02-08T07:02:07.337Z,954.44
2019-02-08T07:03:07.326Z,954.48
2019-02-08T07:04:07.301Z,954.54
2019-02-08T07:05:07.280Z,954.55
2019-02-08T07:06:07.263Z,954.52
2019-02-08T07:07:07.247Z,954.51
2019-02-08T07:08:07.232Z,954.46
2019-02-08T07:09:07.211Z,954.45
2019-02-08T07:10:07.195Z,954.44
2019-02-08T07:11:07.177Z,954.47
2019-02-08T07:12:07.161Z,954.45
2019-02-08T07:13:07.142Z,954.44
2019-02-08T07:14:07.124Z,954.46
2019-02-08T07:15:07.106Z,954.49
2019-02-08T07:16:07.089Z,954.5
2019-02-08T07:17:07.071Z,954.52
2019-02-08T07:18:07.053Z,954.5
2019-02-08T07:19:07.036Z,954.48
2019-02-08T07:20:07.018Z,954.39
2019-02-08T07:21:07.002Z,954.45
2019-02-08T07:22:06.984Z,954.46
2019-02-08T07:23:06.967Z,954.49
2019-02-08T07:24:06.948Z,954.51
2019-02-08T07:25:06.931Z,954.53
2019-02-08T07:26:06.922Z,954.55
2019-02-08T07:27:06.896Z,954.47
2019-02-08T07:28:06.879Z,954.58
2019-02-08T07:29:06.862Z,954.58
2019-02-08T07:30:06.846Z,954.56
2019-02-08T07:31:06.828Z,954.56
2019-02-08T07:32:06.809Z,954.53
2019-02-08T07:33:06.794Z,954.53
2019-02-08T07:34:06.776Z,954.58
2019-02-08T07:35:06.759Z,954.59
2019-02-08T07:36:06.740Z,954.58
2019-02-08T07:37:06.725Z,954.53
2019-02-08T07:38:07.007Z,954.52
2019-02-08T07:39:06.690Z,954.55
2019-02-08T07:40:06.671Z,954.58
2019-02-08T07:41:06.657Z,954.55
2019-02-08T07:42:06.637Z,954.49
2019-02-08T07:43:06.631Z,954.48
2019-02-08T07:44:06.604Z,954.45
2019-02-08T07:45:06.587Z,954.42
2019-02-08T07:46:06.569Z,954.43
2019-02-08T07:47:06.551Z,954.51
2019-02-08T07:48:06.536Z,954.53
2019-02-08T07:49:06.517Z,954.57
2019-02-08T07:50:06.501Z,954.5
2019-02-08T07:51:06.484Z,954.54
2019-02-08T07:52:06.466Z,954.48
2019-02-08T07:53:06.449Z,954.47
2019-02-08T07:54:06.433Z,954.58
2019-02-08T07:55:06.423Z,954.55
2019-02-08T07:56:06.401Z,954.56
2019-02-08T07:57:06.384Z,954.5
2019-02-08T07:58:06.367Z,954.6
2019-02-08T07:59:06.349Z,954.61
2019-02-08T08:00:06.333Z,954.57
2019-02-08T08:01:06.314Z,954.54
2019-02-08T08:02:06.299Z,954.52
2019-02-08T08:03:06.282Z,954.49
2019-02-08T08:04:06.265Z,954.52
2019-02-08T08:05:06.248Z,954.51
2019-02-08T08:06:06.231Z,954.55
2019-02-08T08:07:06.215Z,954.54
2019-02-08T08:08:06.199Z,954.56
2019-02-08T08:09:06.181Z,954.56
2019-02-08T08:10:06.167Z,954.64
2019-02-08T08:11:06.147Z,954.67
2019-02-08T08:12:06.130Z,954.58
2019-02-08T08:13:06.121Z,954.72
2019-02-08T08:14:06.099Z,954.73
2019-02-08T08:15:06.082Z,954.68
2019-02-08T08:16:06.066Z,954.71
2019-02-08T08:17:06.048Z,954.69
2019-02-08T08:18:06.032Z,954.79
2019-02-08T08:19:06.016Z,954.8
2019-02-08T08:20:05.998Z,954.79
2019-02-08T08:21:05.984Z,954.78
2019-02-08T08:22:05.966Z,954.7
2019-02-08T08:23:05.950Z,954.8
2019-02-08T08:24:05.934Z,954.77
2019-02-08T08:25:05.917Z,954.74
2019-02-08T08:26:05.902Z,954.77
2019-02-08T08:27:05.884Z,954.79
2019-02-08T08:28:05.894Z,954.74
2019-02-08T08:29:05.852Z,954.76
2019-02-08T08:30:05.837Z,954.73
2019-02-08T08:31:05.827Z,954.67
2019-02-08T08:32:05.803Z,954.68
2019-02-08T08:33:05.785Z,954.73
2019-02-08T08:34:05.771Z,954.75
2019-02-08T08:35:05.754Z,954.73
2019-02-08T08:36:05.738Z,954.78
2019-02-08T08:37:05.722Z,954.78
2019-02-08T08:38:05.707Z,954.81
2019-02-08T08:39:05.691Z,954.84
2019-02-08T08:40:05.673Z,954.76
2019-02-08T08:41:05.657Z,954.82
2019-02-08T08:42:05.643Z,954.82
2019-02-08T08:43:05.629Z,954.8
2019-02-08T08:44:05.610Z,954.89
2019-02-08T08:45:05.595Z,954.89
2019-02-08T08:46:05.578Z,954.87
2019-02-08T08:47:05.571Z,954.9
2019-02-08T08:48:05.547Z,954.97
2019-02-08T08:49:05.531Z,954.93
2019-02-08T08:50:05.516Z,955.03
2019-02-08T08:51:05.501Z,954.95
2019-02-08T08:52:05.485Z,954.93
2019-02-08T08:53:05.469Z,954.96
2019-02-08T08:54:05.453Z,954.95
2019-02-08T08:55:05.438Z,954.95
2019-02-08T08:56:05.424Z,955.03
2019-02-08T08:57:05.407Z,955.02
2019-02-08T08:58:05.390Z,955.02
2019-02-08T08:59:05.375Z,954.96
2019-02-08T09:00:05.360Z,955
2019-02-08T09:01:05.347Z,954.98
2019-02-08T09:02:05.328Z,954.95
2019-02-08T09:03:05.315Z,955.02
2019-02-08T09:04:05.300Z,955.01
2019-02-08T09:05:05.284Z,954.89
2019-02-08T09:06:08.283Z,954.93
2019-02-08T09:07:05.254Z,954.93
2019-02-08T09:08:05.239Z,954.89
2019-02-08T09:09:05.226Z,954.86
2019-02-08T09:10:05.209Z,954.9
2019-02-08T09:11:05.195Z,954.82
2019-02-08T09:12:05.180Z,954.78
2019-02-08T09:13:05.163Z,954.86
2019-02-08T09:14:05.152Z,954.79
2019-02-08T09:15:05.134Z,954.87
2019-02-08T09:16:05.121Z,954.8
2019-02-08T09:17:05.106Z,954.76
2019-02-08T09:18:05.093Z,954.71
2019-02-08T09:19:05.078Z,954.72
2019-02-08T09:20:05.066Z,954.82
2019-02-08T09:21:05.052Z,954.74
2019-02-08T09:22:05.035Z,954.73
2019-02-08T09:23:05.021Z,954.74
2019-02-08T09:24:05.005Z,954.78
2019-02-08T09:25:04.993Z,954.64
2019-02-08T09:26:04.980Z,954.65
2019-02-08T09:27:04.966Z,954.64
2019-02-08T09:28:04.950Z,954.62
2019-02-08T09:29:04.937Z,954.65
2019-02-08T09:30:04.923Z,954.65
2019-02-08T09:31:04.910Z,954.65
2019-02-08T09:32:04.896Z,954.55
2019-02-08T09:33:04.885Z,954.61
2019-02-08T09:34:04.870Z,954.6
2019-02-08T09:35:04.854Z,954.64
2019-02-08T09:36:04.840Z,954.58
2019-02-08T09:37:04.827Z,954.62
2019-02-08T09:38:04.814Z,954.54
2019-02-08T09:39:04.800Z,954.64
2019-02-08T09:40:04.786Z,954.59
2019-02-08T09:41:04.771Z,954.61
2019-02-08T09:42:04.758Z,954.64
2019-02-08T09:43:04.743Z,954.64
2019-02-08T09:44:04.730Z,954.64
2019-02-08T09:45:04.717Z,954.62
2019-02-08T09:46:04.702Z,954.63
2019-02-08T09:47:04.691Z,954.6
2019-02-08T09:48:04.675Z,954.56
2019-02-08T09:49:04.662Z,954.57
2019-02-08T09:50:04.647Z,954.59
2019-02-08T09:51:04.634Z,954.59
2019-02-08T09:52:04.621Z,954.65
2019-02-08T09:53:04.607Z,954.68
2019-02-08T09:54:04.596Z,954.62
2019-02-08T09:55:04.580Z,954.66
2019-02-08T09:56:04.614Z,954.65
2019-02-08T09:57:04.553Z,954.68
2019-02-08T09:58:04.539Z,954.67
2019-02-08T09:59:04.524Z,954.77
2019-02-08T10:00:04.512Z,954.7
2019-02-08T10:01:04.497Z,954.74
2019-02-08T10:02:04.484Z,954.8
2019-02-08T10:03:04.471Z,954.77
2019-02-08T10:04:04.455Z,954.74
2019-02-08T10:05:04.442Z,954.86
2019-02-08T10:06:04.429Z,954.76
2019-02-08T10:07:04.414Z,954.71
2019-02-08T10:08:04.400Z,954.78
2019-02-08T10:09:04.387Z,954.8
2019-02-08T10:10:04.372Z,954.79
2019-02-08T10:11:04.360Z,954.77
2019-02-08T10:12:04.344Z,954.77
2019-02-08T10:13:04.332Z,954.79
2019-02-08T10:14:04.317Z,954.78
2019-02-08T10:15:04.304Z,954.79
2019-02-08T10:16:04.286Z,954.83
2019-02-08T10:17:04.273Z,954.82
2019-02-08T10:18:04.260Z,954.75
2019-02-08T10:19:04.245Z,954.8
2019-02-08T10:20:04.231Z,954.81
2019-02-08T10:21:04.219Z,954.78
2019-02-08T10:22:04.202Z,954.91
2019-02-08T10:23:04.188Z,954.84
2019-02-08T10:24:04.175Z,954.86
2019-02-08T10:25:04.160Z,954.87
2019-02-08T10:26:05.334Z,954.94
2019-02-08T10:27:04.131Z,954.84
2019-02-08T10:28:04.117Z,954.9
2019-02-08T10:29:04.105Z,954.84
2019-02-08T10:30:04.087Z,954.81
2019-02-08T10:31:04.072Z,954.77
2019-02-08T10:32:04.058Z,954.8
2019-02-08T10:33:04.044Z,954.79
2019-02-08T10:34:04.030Z,954.72
2019-02-08T10:35:04.018Z,954.82
2019-02-08T10:36:04.000Z,954.82
2019-02-08T10:37:03.984Z,954.77
2019-02-08T10:38:03.971Z,954.7
2019-02-08T10:39:03.956Z,954.73
2019-02-08T10:40:03.942Z,954.64
2019-02-08T10:41:03.928Z,954.71
2019-02-08T10:42:03.914Z,954.73
2019-02-08T10:43:03.898Z,954.6
2019-02-08T10:44:03.888Z,954.67
2019-02-08T10:45:03.871Z,954.65
2019-02-08T10:46:03.856Z,954.66
2019-02-08T10:47:03.842Z,954.67
2019-02-08T10:48:03.826Z,954.64
2019-02-08T10:49:03.814Z,954.67
2019-02-08T10:50:03.797Z,954.68
2019-02-08T10:51:03.783Z,954.66
2019-02-08T10:52:03.771Z,954.66
2019-02-08T10:53:03.753Z,954.6
2019-02-08T10:54:03.739Z,954.58
2019-02-08T10:55:03.726Z,954.57
2019-02-08T10:56:03.718Z,954.55
2019-02-08T10:57:03.694Z,954.51
2019-02-08T10:58:03.680Z,954.54
2019-02-08T10:59:03.667Z,954.54
2019-02-08T11:00:03.652Z,954.52
2019-02-08T11:01:03.637Z,954.51
2019-02-08T11:02:03.622Z,954.51
2019-02-08T11:03:03.607Z,954.54
2019-02-08T11:04:03.591Z,954.55
2019-02-08T11:05:03.576Z,954.57
2019-02-08T11:06:03.564Z,954.55
2019-02-08T11:07:03.549Z,954.54
2019-02-08T11:08:03.535Z,954.55
2019-02-08T11:09:03.521Z,954.54
2019-02-08T11:10:03.506Z,954.49
2019-02-08T11:11:03.495Z,954.47
2019-02-08T11:12:03.479Z,954.53
2019-02-08T11:13:03.464Z,954.42
2019-02-08T11:14:03.448Z,954.4
2019-02-08T11:15:03.434Z,954.38
2019-02-08T11:16:03.421Z,954.22
2019-02-08T11:17:03.406Z,954.27
2019-02-08T11:18:03.390Z,954.18
2019-02-08T11:19:03.376Z,954.25
2019-02-08T11:20:03.382Z,954.21
2019-02-08T11:21:03.348Z,954.25
2019-02-08T11:22:03.332Z,954.2
2019-02-08T11:23:03.319Z,954.13
2019-02-08T11:24:03.304Z,954.07
2019-02-08T11:25:03.290Z,954.04
2019-02-08T11:26:03.276Z,954.13
2019-02-08T11:27:03.261Z,954.12
2019-02-08T11:28:03.247Z,954.14
2019-02-08T11:29:03.232Z,954.18
2019-02-08T11:30:03.220Z,954.17
2019-02-08T11:31:03.206Z,954.21
2019-02-08T11:32:03.191Z,954.1
2019-02-08T11:33:03.176Z,954.15
2019-02-08T11:34:03.162Z,954.1
2019-02-08T11:35:03.149Z,954.19
2019-02-08T11:36:03.133Z,954.14
2019-02-08T11:37:03.124Z,954.08
2019-02-08T11:38:03.109Z,954.11
2019-02-08T11:39:03.092Z,954.04
2019-02-08T11:40:03.076Z,954.08
2019-02-08T11:41:03.062Z,954.05
2019-02-08T11:42:03.049Z,954.13
2019-02-08T11:43:03.034Z,954.12
2019-02-08T11:44:03.021Z,954.01
2019-02-08T11:45:03.007Z,954.06
2019-02-08T11:46:02.995Z,954.01
2019-02-08T11:47:02.976Z,954.03
2019-02-08T11:48:02.967Z,954.1
2019-02-08T11:49:02.950Z,954.04
2019-02-08T11:50:02.936Z,954.04
2019-02-08T11:51:02.923Z,954.07
2019-02-08T11:52:02.906Z,954.06
2019-02-08T11:53:02.892Z,954.01
2019-02-08T11:54:02.877Z,953.97
2019-02-08T11:55:02.863Z,953.95
2019-02-08T11:56:02.848Z,953.87
2019-02-08T11:57:02.834Z,953.96
2019-02-08T11:58:02.819Z,953.91
2019-02-08T11:59:02.804Z,953.96
2019-02-08T12:00:02.791Z,953.96
2019-02-08T12:01:02.775Z,953.96
2019-02-08T12:02:02.760Z,954.01
2019-02-08T12:03:02.748Z,953.98
2019-02-08T12:04:02.733Z,954.05
2019-02-08T12:05:02.717Z,954.04
2019-02-08T12:06:02.712Z,953.98
2019-02-08T12:07:02.689Z,953.99
2019-02-08T12:08:02.678Z,953.96
2019-02-08T12:09:02.658Z,953.97
2019-02-08T12:10:02.645Z,953.96
2019-02-08T12:11:02.643Z,953.91
2019-02-08T12:12:02.616Z,953.98
2019-02-08T12:13:02.603Z,953.89
2019-02-08T12:14:02.589Z,953.93
2019-02-08T12:15:02.579Z,953.95
2019-02-08T12:16:02.609Z,953.86
2019-02-08T12:17:02.545Z,953.88
2019-02-08T12:18:02.531Z,953.83
2019-02-08T12:19:02.517Z,953.8
2019-02-08T12:20:02.502Z,953.8
2019-02-08T12:21:02.488Z,953.8
2019-02-08T12:22:02.473Z,953.74
2019-02-08T12:23:02.459Z,953.68
2019-02-08T12:24:02.443Z,953.75
2019-02-08T12:25:02.431Z,953.73
2019-02-08T12:26:02.417Z,953.75
2019-02-08T12:27:02.401Z,953.65
2019-02-08T12:28:02.391Z,953.7
2019-02-08T12:29:02.373Z,953.75
2019-02-08T12:30:02.359Z,953.66
2019-02-08T12:31:02.344Z,953.65